Wednesday, July 30, 2014
21:24 UTC
  |  Log In   |  Register Free
Airport Search:

South Alabama Regional At Bill Benton Field Airport
(79J)

South Alabama Regional At Bill Benton Field Airport Diagram
No Airport Diagram Available

FAA data valid effective July 24, 2014 until September 18, 2014 (unless otherwise noted).

 
 
 
 
 
 
 
 
 
 
 
 
 
 

Current Aviation Weather for South Alabama Regional At Bill Benton Field Airport (79J)

The most recent METAR observation for KLOR was updated at: 1853 UTC
METAR Summary (Translated METAR)
KLOR
281853Z AUTO 27010KT 10SM SCT044 BKN055 BKN070 35/22 A2994 RMK AO2 SLP132 T03500222 TSNO $
KOZR
(5.2 nm SE from KLOR)
281758Z AUTO 26009KT 210V280 10SM FEW042 SCT160 SCT210 34/24 A2998 RMK AO2 SLP151 T03370238 10337 20251 58010
TAF Summary (Translated TAF)
KOZR
(5.2 nm SE from KLOR)
3016/3122 33006KT 9999 FEW050 QNH3000INS TX30/3121Z TN19/3109Z
KDHN
(15.6 nm SE from KLOR)
301720Z 3018/3118 VRB04KT P6SM SCT050
  Airport Weather Conditions for 79J

Current weather conditions are
not available for 79J


The nearest NOAA weather station
is at CEW, (32.5 nm SW from 79J)
  
 Current Weather at CEW
87° F
Fair
Northwest winds at 8.1 mph
CEW NOAA Radar

Pressure: 30.00 in
Humidity: 32%
Wind: Northwest at 8.1 MPH (7 KT)
Dew Point: 54.0°F
Visibility: 10.00 mi


Airport Weather Forecast for 79J

Translated METAR and TAF for KLOR
Translated METAR for KLOR (2117 UTC 30 July 2014)
found at http://aviationweather.gov/adds/metars/
 
METAR text: KLOR 302053Z AUTO VRB05KT 10SM CLR 31/11 A2998 RMK AO2 SLP149 T03060111 56010 TSNO $
Conditions at: KLOR (LOWE AHP/FT. RUC, AL, US) observed 2053 UTC 30 July 2014
Temperature: 30.6°C (87°F)
Dewpoint: 11.1°C (52°F) [RH = 30%]
Pressure (altimeter): 29.98 inches Hg (1015.3 mb)
[Sea-level pressure: 1014.9 mb]
Winds: variable direction winds at 6 MPH (5 knots; 2.6 m/s)
Visibility: 10 or more miles (16+ km)
Ceiling: at least 12,000 feet AGL
Clouds: sky clear below 12,000 feet AGL
Weather:
SOME DATA ABOVE MAY BE INACCURATE!!!
"$" is an indication the sensor requires maintenance
Translated TAF for KLOR

There is no translated TAF available for this airport

Find All Airport Services Find A Hotel Find A Rental Car Find A Golf Course Find A Restaurant $100 Hamburger



FBO's on the Field
FBO Company Facility Photos Services Transportation Aviation Fuel Prices: Prices include tax
Catering Weather Repair Courtesy Rental Type 100LL JetA JetA+ MOGAS 8087
 
South Alabama Regional Airport

This FBO has not yet been rated
FS:Independent
Last Updated: Jul-03
Login to update fuel prices
SS:
Contact South Alabama Regional AirportMore FBO Information
 
Add another FBO Facility Photos Catering Weather Repair Courtesy Rental Type 100LL JetA JetA+ MOGAS 8087
Services Transportation Aviation Fuel Prices: Prices include tax


GlobalAir.com Airport Resource Center model-print
model-print
model-print
model-print